Time;durP1;ratioP1;P1;durP2;ratioP2;P2;SDS_P1;SDS_P2;PMS_P1;PMS_P2;Temp;Humidity;BMP_temperature;BMP_pressure;BME280_temperature;BME280_humidity;BME280_pressure;Samples;Min_cycle;Max_cycle;Signal;HPM_P1;HPM_P2
2021/11/06 00:01:50;;;;;;;;;;;;;;;14.20;50.79;102754.50;4146520;28;19921;-67
2021/11/06 00:03:52;;;;;;;;;;;;;;;14.19;50.89;102755.41;4146796;28;19937;-65
2021/11/06 00:05:54;;;;;;;;;;;;;;;14.18;50.75;102758.03;4146533;28;20389;-65
2021/11/06 00:07:56;;;;;;;;;;;;;;;14.18;51.07;102760.69;4146718;28;19929;-66
2021/11/06 00:09:58;;;;;;;;;;;;;;;14.16;50.93;102758.06;4146747;28;19922;-66
2021/11/06 00:12:00;;;;;;;;;;;;;;;14.16;50.65;102751.94;4161260;28;20435;-66
2021/11/06 00:14:02;;;;;;;;;;;;;;;14.15;50.80;102766.91;4146436;28;19995;-66
2021/11/06 00:16:04;;;;;;;;;;;;;;;14.15;51.02;102764.28;4146434;28;20431;-65
2021/11/06 00:18:06;;;;;;;;;;;;;;;14.02;50.76;102742.47;4146342;28;20012;-66
2021/11/06 00:20:09;;;;;;;;;;;;;;;14.14;50.92;102773.09;4146541;28;19928;-66
2021/11/06 00:22:12;;;;;;;;;;;;;;;14.14;50.91;102772.25;4146093;28;20448;-66
2021/11/06 00:24:14;;;;;;;;;;;;;;;14.13;50.83;102774.03;4146433;28;20484;-66
2021/11/06 00:26:16;;;;;;;;;;;;;;;14.13;51.11;102773.13;4146470;28;19975;-66
2021/11/06 00:28:18;;;;;;;;;;;;;;;14.11;51.05;102767.88;4144962;28;20356;-66
2021/11/06 00:30:20;;;;;;;;;;;;;;;14.11;50.81;102767.00;4146561;28;20623;-66
2021/11/06 00:32:22;;;;;;;;;;;;;;;14.10;51.00;102759.97;4146204;28;20004;-66
2021/11/06 00:34:24;;;;;;;;;;;;;;;14.10;50.84;102760.84;4146361;28;19929;-66
2021/11/06 00:36:26;;;;;;;;;;;;;;;14.09;51.09;102756.44;4146269;28;19937;-66
2021/11/06 00:38:28;;;;;;;;;;;;;;;14.08;50.99;102754.69;4145839;28;19921;-68
2021/11/06 00:40:30;;;;;;;;;;;;;;;14.07;50.82;102758.25;4146433;28;20374;-66
2021/11/06 00:42:32;;;;;;;;;;;;;;;14.07;50.97;102758.25;4146736;28;20274;-66
2021/11/06 00:44:34;;;;;;;;;;;;;;;14.06;50.76;102751.22;4146201;28;19923;-67
2021/11/06 00:46:36;;;;;;;;;;;;;;;14.05;50.98;102749.47;4146436;28;19925;-66
2021/11/06 00:48:38;;;;;;;;;;;;;;;14.04;50.99;102751.22;4145828;28;19967;-66
2021/11/06 00:50:41;;;;;;;;;;;;;;;14.04;50.91;102742.44;4145924;28;19922;-67
2021/11/06 00:52:46;;;;;;;;;;;;;;;14.04;50.85;102747.72;4145638;28;19921;-67
2021/11/06 00:54:48;;;;;;;;;;;;;;;14.02;50.78;102742.47;4144757;28;19985;-66
2021/11/06 00:56:50;;;;;;;;;;;;;;;14.02;50.73;102744.22;4161238;28;19953;-66
2021/11/06 00:58:52;;;;;;;;;;;;;;;14.02;50.75;102738.94;4145892;28;19929;-67
2021/11/06 01:00:54;;;;;;;;;;;;;;;14.02;51.06;102736.28;4145735;28;19921;-67
2021/11/06 01:02:57;;;;;;;;;;;;;;;14.00;50.93;102727.53;4145812;28;19928;-66
2021/11/06 01:04:59;;;;;;;;;;;;;;;14.00;51.14;102716.94;4135012;28;19921;-66
2021/11/06 01:07:01;;;;;;;;;;;;;;;13.99;50.86;102728.41;4144893;28;19976;-67
2021/11/06 01:09:03;;;;;;;;;;;;;;;13.99;50.86;102728.41;4146064;28;19926;-66
2021/11/06 01:11:05;;;;;;;;;;;;;;;13.97;50.69;102723.13;4149337;28;19925;-66
2021/11/06 01:13:07;;;;;;;;;;;;;;;13.96;50.87;102726.69;4149212;28;19925;-67
2021/11/06 01:15:12;;;;;;;;;;;;;;;13.96;51.04;102732.00;4149208;28;19928;-67
2021/11/06 01:17:14;;;;;;;;;;;;;;;13.95;51.30;102734.63;4149275;28;19929;-67
2021/11/06 01:19:16;;;;;;;;;;;;;;;13.94;50.89;102735.53;4148847;28;20049;-67
2021/11/06 01:21:18;;;;;;;;;;;;;;;13.93;50.86;102733.81;4148959;28;20036;-67
2021/11/06 01:23:20;;;;;;;;;;;;;;;13.93;51.17;102741.75;4148877;28;19929;-67
2021/11/06 01:25:23;;;;;;;;;;;;;;;13.92;51.04;102734.72;4148942;28;20009;-68
2021/11/06 01:27:25;;;;;;;;;;;;;;;13.90;50.94;102738.25;4149362;28;19921;-66
2021/11/06 01:29:27;;;;;;;;;;;;;;;13.90;50.98;102737.34;4148993;28;19922;-66
2021/11/06 01:31:30;;;;;;;;;;;;;;;13.89;50.89;102733.84;4149163;28;19928;-68
2021/11/06 01:33:32;;;;;;;;;;;;;;;13.89;50.93;102735.63;4148983;28;19921;-66
2021/11/06 01:35:33;;;;;;;;;;;;;;;13.88;50.96;102731.25;4145167;28;19925;-68
2021/11/06 01:37:36;;;;;;;;;;;;;;;13.88;50.89;102728.59;4149012;28;19975;-66
2021/11/06 01:39:38;;;;;;;;;;;;;;;13.88;51.08;102725.97;4148644;28;19928;-68
2021/11/06 01:41:40;;;;;;;;;;;;;;;13.87;50.81;102732.13;4148782;28;19925;-68
2021/11/06 01:43:42;;;;;;;;;;;;;;;13.86;51.11;102728.63;4160984;28;19921;-68
2021/11/06 01:45:44;;;;;;;;;;;;;;;13.85;50.81;102728.63;4148534;28;19921;-68
2021/11/06 01:47:46;;;;;;;;;;;;;;;13.84;50.79;102732.19;4149237;28;19952;-67
2021/11/06 01:49:48;;;;;;;;;;;;;;;13.83;51.06;102730.47;4148556;28;19921;-68
2021/11/06 01:51:52;;;;;;;;;;;;;;;13.82;50.91;102726.94;4148681;28;19921;-68
2021/11/06 01:53:54;;;;;;;;;;;;;;;13.82;51.05;102726.06;4148771;28;19941;-68
2021/11/06 01:55:58;;;;;;;;;;;;;;;13.81;50.81;102725.16;4148459;28;19944;-68
2021/11/06 01:58:01;;;;;;;;;;;;;;;13.81;50.81;102725.16;4148636;28;19943;-68
2021/11/06 02:00:13;;;;;;;;;;;;;;;13.81;51.17;102729.59;4148329;28;20432;-67
2021/11/06 02:02:16;;;;;;;;;;;;;;;13.79;51.27;102729.63;4148666;28;19941;-68
2021/11/06 02:04:18;;;;;;;;;;;;;;;13.78;51.11;102721.69;4148622;28;19921;-68
2021/11/06 02:06:20;;;;;;;;;;;;;;;13.79;50.95;102728.75;4148334;28;20366;-67
2021/11/06 02:08:22;;;;;;;;;;;;;;;13.78;51.01;102733.19;4148445;28;19921;-67
2021/11/06 02:10:24;;;;;;;;;;;;;;;13.77;51.32;102726.13;4148274;28;19928;-68
2021/11/06 02:12:26;;;;;;;;;;;;;;;13.78;51.01;102734.94;4148496;28;20341;-68
2021/11/06 02:14:28;;;;;;;;;;;;;;;13.76;50.97;102726.16;4148513;28;19922;-68
2021/11/06 02:16:31;;;;;;;;;;;;;;;13.64;50.85;102708.72;4148197;28;19921;-68
2021/11/06 02:18:33;;;;;;;;;;;;;;;13.76;51.13;102734.09;4148428;28;20259;-67
2021/11/06 02:20:35;;;;;;;;;;;;;;;13.75;51.11;102730.56;4146138;28;19922;-68
2021/11/06 02:22:37;;;;;;;;;;;;;;;13.73;51.21;102727.97;4148057;28;19921;-68
2021/11/06 02:24:39;;;;;;;;;;;;;;;13.73;50.94;102735.00;4148291;28;19921;-68
2021/11/06 02:26:41;;;;;;;;;;;;;;;13.72;51.15;102741.22;4148084;28;19921;-68
2021/11/06 02:28:47;;;;;;;;;;;;;;;13.73;50.79;102737.66;4148199;28;19921;-68
2021/11/06 02:30:49;;;;;;;;;;;;;;;13.72;51.23;102735.94;4148080;28;20012;-68
2021/11/06 02:32:52;;;;;;;;;;;;;;;13.70;51.00;102735.94;4147985;28;19921;-68
2021/11/06 02:34:54;;;;;;;;;;;;;;;13.70;50.98;102727.13;4146958;28;19927;-67
2021/11/06 02:36:56;;;;;;;;;;;;;;;13.70;50.91;102721.84;4147749;28;20475;-68
2021/11/06 02:38:59;;;;;;;;;;;;;;;13.69;51.13;102720.09;4148037;28;20475;-68
2021/11/06 02:41:01;;;;;;;;;;;;;;;13.69;51.13;102722.75;4147744;28;19922;-68
2021/11/06 02:43:04;;;;;;;;;;;;;;;13.68;50.82;102715.69;4151197;28;19922;-68
2021/11/06 02:45:07;;;;;;;;;;;;;;;13.68;51.09;102710.41;4148116;28;19944;-68
2021/11/06 02:47:09;;;;;;;;;;;;;;;13.68;50.80;102713.06;4147722;28;19921;-68
2021/11/06 02:49:11;;;;;;;;;;;;;;;13.67;51.01;102716.59;4147653;28;19930;-68
2021/11/06 02:51:14;;;;;;;;;;;;;;;13.66;51.04;102709.59;4147644;28;19979;-68
2021/11/06 02:53:16;;;;;;;;;;;;;;;13.65;50.96;102708.69;4147578;28;20471;-68
2021/11/06 02:55:19;;;;;;;;;;;;;;;13.65;51.19;102713.97;4147749;28;19928;-68
2021/11/06 02:57:21;;;;;;;;;;;;;;;13.64;51.00;102711.38;4147356;28;19921;-68
2021/11/06 02:59:23;;;;;;;;;;;;;;;13.63;51.06;102715.78;4147804;28;19926;-69
2021/11/06 03:01:26;;;;;;;;;;;;;;;13.63;51.29;102713.13;4147457;28;20304;-68
2021/11/06 03:03:28;;;;;;;;;;;;;;;13.62;50.99;102716.69;4147619;28;20390;-68
2021/11/06 03:05:30;;;;;;;;;;;;;;;13.61;51.01;102708.75;4147652;28;20008;-68
2021/11/06 03:07:32;;;;;;;;;;;;;;;13.61;51.15;102717.59;4147450;28;19922;-68
2021/11/06 03:09:38;;;;;;;;;;;;;;;13.60;51.04;102721.13;4147574;28;19921;-68
2021/11/06 03:11:40;;;;;;;;;;;;;;;13.60;51.09;102725.53;4147924;28;19921;-68
2021/11/06 03:13:43;;;;;;;;;;;;;;;13.59;51.09;102724.66;4143365;28;19929;-68
2021/11/06 03:15:45;;;;;;;;;;;;;;;13.58;50.97;102733.47;4131331;28;19937;-68
2021/11/06 03:17:47;;;;;;;;;;;;;;;13.57;50.97;102732.63;4134867;28;19928;-68
2021/11/06 03:19:49;;;;;;;;;;;;;;;13.57;50.99;102737.91;4139179;28;19922;-68
2021/11/06 03:21:51;;;;;;;;;;;;;;;13.57;50.89;102735.28;4130181;28;19926;-68
2021/11/06 03:23:53;;;;;;;;;;;;;;;13.55;50.87;102729.13;4142255;28;20332;-68
2021/11/06 03:25:56;;;;;;;;;;;;;;;13.55;50.78;102728.25;4131541;28;19944;-68
2021/11/06 03:27:58;;;;;;;;;;;;;;;13.54;51.14;102722.09;4133450;28;20401;-68
2021/11/06 03:30:00;;;;;;;;;;;;;;;13.54;51.11;102726.50;4140342;28;19925;-67
2021/11/06 03:32:03;;;;;;;;;;;;;;;13.54;50.98;102726.50;4131329;28;20278;-68
2021/11/06 03:34:05;;;;;;;;;;;;;;;13.53;50.93;102725.63;4141058;28;19925;-68
2021/11/06 03:36:07;;;;;;;;;;;;;;;13.52;50.87;102725.66;4132861;28;19948;-68
2021/11/06 03:38:09;;;;;;;;;;;;;;;13.53;50.69;102727.41;4144288;28;19925;-68
2021/11/06 03:40:12;;;;;;;;;;;;;;;13.50;50.89;102730.97;4136647;28;19925;-67
2021/11/06 03:42:14;;;;;;;;;;;;;;;13.51;51.24;102731.84;4147479;28;19932;-67
2021/11/06 03:44:16;;;;;;;;;;;;;;;13.49;51.25;102729.22;4150074;28;19922;-68
2021/11/06 03:46:18;;;;;;;;;;;;;;;13.49;50.92;102723.06;4147063;28;19921;-67
2021/11/06 03:48:20;;;;;;;;;;;;;;;13.48;51.10;102726.59;4146735;28;19929;-67
2021/11/06 03:50:22;;;;;;;;;;;;;;;13.47;51.44;102722.22;4146834;28;19971;-67
2021/11/06 03:52:24;;;;;;;;;;;;;;;13.47;51.05;102731.00;4147030;28;19922;-66
2021/11/06 03:54:26;;;;;;;;;;;;;;;13.46;51.17;102731.91;4146400;28;20449;-67
2021/11/06 03:56:28;;;;;;;;;;;;;;;13.46;50.94;102734.53;4146896;28;19921;-67
2021/11/06 03:58:30;;;;;;;;;;;;;;;13.45;51.12;102731.94;4146637;28;19952;-66
2021/11/06 04:00:32;;;;;;;;;;;;;;;13.44;51.11;102733.72;4146635;28;19929;-67
2021/11/06 04:02:34;;;;;;;;;;;;;;;13.44;50.88;102733.72;4146544;28;19968;-67
2021/11/06 04:04:36;;;;;;;;;;;;;;;13.45;51.27;102739.88;4146253;28;19925;-66
2021/11/06 04:06:38;;;;;;;;;;;;;;;13.43;51.10;102731.97;4146575;28;20445;-66
2021/11/06 04:08:41;;;;;;;;;;;;;;;13.42;50.91;102740.78;4146736;28;19928;-67
2021/11/06 04:10:43;;;;;;;;;;;;;;;13.42;50.92;102744.28;4146602;28;19929;-67
2021/11/06 04:12:45;;;;;;;;;;;;;;;13.41;50.93;102741.69;4146639;28;19921;-66
2021/11/06 04:14:47;;;;;;;;;;;;;;;13.41;51.12;102742.56;4146244;28;19940;-67
2021/11/06 04:16:49;;;;;;;;;;;;;;;13.40;50.89;102739.91;4146467;28;20412;-66
2021/11/06 04:18:51;;;;;;;;;;;;;;;13.39;51.07;102743.47;4146628;28;19923;-67
2021/11/06 04:20:53;;;;;;;;;;;;;;;13.38;51.09;102745.25;4145961;28;19922;-66
2021/11/06 04:22:55;;;;;;;;;;;;;;;13.37;51.12;102751.38;4146438;28;20432;-66
2021/11/06 04:24:57;;;;;;;;;;;;;;;13.38;50.96;102754.97;4146024;28;19921;-66
2021/11/06 04:26:59;;;;;;;;;;;;;;;13.37;51.08;102756.66;4146547;28;19925;-67
2021/11/06 04:29:01;;;;;;;;;;;;;;;13.36;51.01;102757.56;4146702;28;20313;-66
2021/11/06 04:31:03;;;;;;;;;;;;;;;13.36;51.12;102757.56;4146252;28;19926;-66
2021/11/06 04:33:06;;;;;;;;;;;;;;;13.35;50.95;102749.66;4146475;28;19929;-67
2021/11/06 04:35:08;;;;;;;;;;;;;;;13.34;50.97;102756.72;4146027;28;19925;-68
2021/11/06 04:37:10;;;;;;;;;;;;;;;13.34;50.93;102753.19;4146068;28;19948;-66
2021/11/06 04:39:12;;;;;;;;;;;;;;;13.34;51.03;102755.84;4146220;28;20328;-66
2021/11/06 04:41:14;;;;;;;;;;;;;;;13.32;50.90;102758.50;4144861;28;19922;-66
2021/11/06 04:43:16;;;;;;;;;;;;;;;13.19;51.10;102736.66;4155029;28;19921;-66
2021/11/06 04:45:18;;;;;;;;;;;;;;;13.32;50.93;102760.25;4157264;28;20548;-66
2021/11/06 04:47:20;;;;;;;;;;;;;;;13.31;50.98;102763.84;4146147;28;19921;-66
2021/11/06 04:49:22;;;;;;;;;;;;;;;13.30;51.14;102764.72;4145933;28;19922;-67
2021/11/06 04:51:24;;;;;;;;;;;;;;;13.29;50.94;102755.91;4145714;28;19929;-66
2021/11/06 04:53:26;;;;;;;;;;;;;;;13.29;50.85;102766.47;4145926;28;19921;-66
2021/11/06 04:55:31;;;;;;;;;;;;;;;13.29;50.80;102761.19;4145710;28;19928;-66
2021/11/06 04:57:33;;;;;;;;;;;;;;;13.29;51.08;102762.97;4145890;28;20432;-66
2021/11/06 04:59:35;;;;;;;;;;;;;;;13.27;50.96;102763.84;4145965;28;19921;-67
2021/11/06 05:01:38;;;;;;;;;;;;;;;13.27;50.90;102761.22;4145614;28;19922;-66
2021/11/06 05:03:40;;;;;;;;;;;;;;;13.26;50.87;102756.81;4145751;28;20409;-67
2021/11/06 05:05:42;;;;;;;;;;;;;;;13.26;50.73;102764.75;4145779;28;19925;-66
2021/11/06 05:07:44;;;;;;;;;;;;;;;13.25;51.10;102757.72;4145845;28;19933;-67
2021/11/06 05:09:46;;;;;;;;;;;;;;;13.25;50.84;102756.84;4146199;28;19976;-66
2021/11/06 05:11:49;;;;;;;;;;;;;;;13.24;50.84;102760.38;4145678;28;19925;-67
2021/11/06 05:13:51;;;;;;;;;;;;;;;13.23;50.92;102754.25;4145840;28;19925;-67
2021/11/06 05:15:53;;;;;;;;;;;;;;;13.23;50.92;102754.25;4146079;28;19928;-66
2021/11/06 05:17:55;;;;;;;;;;;;;;;13.22;50.88;102757.78;4145944;28;20001;-66
2021/11/06 05:19:58;;;;;;;;;;;;;;;13.21;50.69;102748.09;4146035;28;19929;-66
2021/11/06 05:22:00;;;;;;;;;;;;;;;13.21;51.08;102742.81;4145570;28;19933;-66
2021/11/06 05:24:06;;;;;;;;;;;;;;;13.21;50.85;102739.31;4145916;28;19928;-67
2021/11/06 05:26:08;;;;;;;;;;;;;;;13.20;50.98;102743.69;4145962;28;19923;-66
2021/11/06 05:28:11;;;;;;;;;;;;;;;13.20;51.08;102735.78;4141902;28;19928;-67
2021/11/06 05:30:13;;;;;;;;;;;;;;;13.20;50.73;102742.84;4129935;28;19928;-66
2021/11/06 05:32:15;;;;;;;;;;;;;;;13.18;51.06;102742.84;4133193;28;19956;-66
2021/11/06 05:34:17;;;;;;;;;;;;;;;13.18;50.94;102748.13;4137573;28;19947;-66
2021/11/06 05:36:19;;;;;;;;;;;;;;;13.16;50.69;102747.28;4129582;28;19928;-67
2021/11/06 05:38:21;;;;;;;;;;;;;;;13.18;51.07;102747.25;4133862;28;19937;-67
2021/11/06 05:40:23;;;;;;;;;;;;;;;13.16;50.99;102738.47;4144938;28;19921;-67
2021/11/06 05:42:25;;;;;;;;;;;;;;;13.15;51.13;102736.72;4146119;28;19968;-67
2021/11/06 05:44:27;;;;;;;;;;;;;;;13.15;50.82;102740.25;4145592;28;19925;-67
2021/11/06 05:46:29;;;;;;;;;;;;;;;13.14;50.84;102743.78;4145832;28;20409;-67
2021/11/06 05:48:32;;;;;;;;;;;;;;;13.14;50.88;102740.28;4145529;28;19922;-67
2021/11/06 05:50:34;;;;;;;;;;;;;;;13.13;50.89;102749.97;4144262;28;20325;-67
2021/11/06 05:52:36;;;;;;;;;;;;;;;13.13;50.86;102752.59;4144299;28;19921;-67
2021/11/06 05:54:39;;;;;;;;;;;;;;;13.12;51.20;102750.00;4134573;28;19921;-67
2021/11/06 05:56:41;;;;;;;;;;;;;;;13.12;50.84;102756.13;4147085;28;19922;-67
2021/11/06 05:58:43;;;;;;;;;;;;;;;13.11;51.04;102759.69;4148234;28;20419;-67
2021/11/06 06:00:46;;;;;;;;;;;;;;;13.11;50.80;102759.69;4148478;28;20166;-67
2021/11/06 06:02:48;;;;;;;;;;;;;;;13.10;50.96;102764.09;4148213;28;19966;-67
2021/11/06 06:04:50;;;;;;;;;;;;;;;13.09;50.92;102759.69;4148235;28;19929;-67
2021/11/06 06:06:52;;;;;;;;;;;;;;;13.08;50.91;102757.94;4148494;28;20270;-67
2021/11/06 06:08:54;;;;;;;;;;;;;;;13.08;50.71;102755.31;4148335;28;20396;-67
2021/11/06 06:10:56;;;;;;;;;;;;;;;13.08;50.94;102759.72;4148324;28;19944;-67
2021/11/06 06:12:58;;;;;;;;;;;;;;;13.07;50.88;102758.88;4148157;28;19925;-67
2021/11/06 06:15:01;;;;;;;;;;;;;;;13.06;50.84;102765.03;4147965;28;19929;-67
2021/11/06 06:17:03;;;;;;;;;;;;;;;13.07;50.86;102763.25;4148381;28;19944;-67
2021/11/06 06:19:05;;;;;;;;;;;;;;;13.05;50.67;102765.03;4148094;28;20009;-67
2021/11/06 06:21:07;;;;;;;;;;;;;;;13.04;50.67;102768.59;4148196;28;19925;-68
2021/11/06 06:23:09;;;;;;;;;;;;;;;13.03;51.00;102770.34;4148018;28;20394;-67
2021/11/06 06:25:12;;;;;;;;;;;;;;;13.04;50.98;102771.25;4148075;28;20374;-67
2021/11/06 06:27:14;;;;;;;;;;;;;;;13.02;50.79;102773.00;4148333;28;19928;-67
2021/11/06 06:29:16;;;;;;;;;;;;;;;13.02;50.96;102783.59;4147995;28;19921;-67
2021/11/06 06:31:18;;;;;;;;;;;;;;;13.02;50.80;102783.59;4147957;28;20275;-67
2021/11/06 06:33:20;;;;;;;;;;;;;;;13.01;50.93;102782.69;4148259;28;19921;-67
2021/11/06 06:35:22;;;;;;;;;;;;;;;13.02;51.01;102794.16;4147829;28;19921;-66
2021/11/06 06:37:24;;;;;;;;;;;;;;;13.01;50.81;102792.41;4148196;28;20263;-67
2021/11/06 06:39:27;;;;;;;;;;;;;;;13.00;50.72;102793.28;4147737;28;20389;-67
2021/11/06 06:41:29;;;;;;;;;;;;;;;12.99;50.74;102795.06;4147697;28;19928;-67
2021/11/06 06:43:32;;;;;;;;;;;;;;;12.99;50.85;102797.72;4157471;28;19928;-67
2021/11/06 06:45:34;;;;;;;;;;;;;;;12.99;50.81;102791.53;4148484;28;20431;-67
2021/11/06 06:47:36;;;;;;;;;;;;;;;12.98;50.99;102787.13;4147787;28;20301;-67
2021/11/06 06:49:39;;;;;;;;;;;;;;;12.98;51.09;102795.06;4147375;28;19925;-67
2021/11/06 06:51:41;;;;;;;;;;;;;;;12.96;50.90;102787.16;4147632;28;19928;-67
2021/11/06 06:53:43;;;;;;;;;;;;;;;12.96;50.95;102795.09;4147817;28;19929;-66
2021/11/06 06:55:45;;;;;;;;;;;;;;;12.96;50.89;102794.22;4162393;28;19943;-67
2021/11/06 06:57:48;;;;;;;;;;;;;;;12.95;50.73;102793.34;4147814;28;19921;-67
2021/11/06 06:59:50;;;;;;;;;;;;;;;12.94;50.92;102789.84;4147290;28;19945;-67
2021/11/06 07:01:52;;;;;;;;;;;;;;;12.94;50.92;102789.84;4147489;28;19928;-68
2021/11/06 07:03:54;;;;;;;;;;;;;;;12.93;50.75;102796.00;4147622;28;20401;-67
2021/11/06 07:05:56;;;;;;;;;;;;;;;12.92;50.67;102794.25;4147284;28;20432;-66
2021/11/06 07:07:58;;;;;;;;;;;;;;;12.93;51.01;102797.78;4147120;28;19921;-66
2021/11/06 07:10:00;;;;;;;;;;;;;;;12.92;50.60;102799.53;4147427;28;19922;-67
2021/11/06 07:12:03;;;;;;;;;;;;;;;12.92;50.77;102798.66;4147300;28;19925;-67
2021/11/06 07:14:05;;;;;;;;;;;;;;;12.91;50.68;102797.78;4147350;28;19929;-66
2021/11/06 07:16:07;;;;;;;;;;;;;;;12.72;50.85;102772.47;4147035;28;19925;-67
2021/11/06 07:18:09;;;;;;;;;;;;;;;12.90;50.62;102803.09;4147452;28;19922;-67
2021/11/06 07:20:11;;;;;;;;;;;;;;;12.89;50.86;102807.50;4146967;28;19928;-66
2021/11/06 07:22:13;;;;;;;;;;;;;;;12.88;50.83;102794.28;4147115;28;19921;-67
2021/11/06 07:24:15;;;;;;;;;;;;;;;12.88;50.65;102796.94;4147492;28;19921;-67
2021/11/06 07:26:17;;;;;;;;;;;;;;;12.87;50.69;102793.44;4147074;28;20031;-68
2021/11/06 07:28:19;;;;;;;;;;;;;;;12.88;50.66;102797.84;4147222;28;19921;-68
2021/11/06 07:30:21;;;;;;;;;;;;;;;12.86;50.86;102793.47;4147020;28;19968;-67
2021/11/06 07:32:23;;;;;;;;;;;;;;;12.86;50.97;102794.31;4147089;28;19925;-68
2021/11/06 07:34:25;;;;;;;;;;;;;;;12.86;50.82;102793.47;4147450;28;20293;-68
2021/11/06 07:36:28;;;;;;;;;;;;;;;12.86;50.89;102794.31;4146772;28;20316;-66
2021/11/06 07:38:30;;;;;;;;;;;;;;;12.84;50.63;102790.81;4147085;28;20274;-67
2021/11/06 07:40:32;;;;;;;;;;;;;;;12.85;50.61;102794.34;4145815;28;20349;-67
2021/11/06 07:42:37;;;;;;;;;;;;;;;12.84;51.00;102789.97;4149588;28;19921;-67
2021/11/06 07:44:39;;;;;;;;;;;;;;;12.85;50.68;102794.34;4163279;28;19921;-68
2021/11/06 07:46:41;;;;;;;;;;;;;;;12.83;50.99;102794.38;4155243;28;19928;-67
2021/11/06 07:48:43;;;;;;;;;;;;;;;12.84;50.69;102789.97;4146686;28;19921;-68
2021/11/06 07:50:45;;;;;;;;;;;;;;;12.83;50.72;102797.03;4146839;28;19925;-68
2021/11/06 07:52:47;;;;;;;;;;;;;;;12.83;50.49;102797.03;4146525;28;19925;-66
2021/11/06 07:54:49;;;;;;;;;;;;;;;12.82;50.63;102797.91;4146638;28;19922;-67
2021/11/06 07:56:52;;;;;;;;;;;;;;;12.82;50.79;102803.19;4145141;28;19921;-68
2021/11/06 07:58:54;;;;;;;;;;;;;;;12.82;50.55;102807.56;4146766;28;20267;-69
2021/11/06 08:00:57;;;;;;;;;;;;;;;12.69;50.58;102783.09;4146650;28;19964;-67
2021/11/06 08:03:00;;;;;;;;;;;;;;;12.81;50.57;102812.00;4146392;28;20020;-67
2021/11/06 08:05:02;;;;;;;;;;;;;;;12.82;50.62;102815.50;4146620;28;19925;-67
2021/11/06 08:07:04;;;;;;;;;;;;;;;12.81;50.78;102806.72;4146689;28;19929;-67
2021/11/06 08:09:06;;;;;;;;;;;;;;;12.82;50.47;102815.50;4146672;28;19928;-66
2021/11/06 08:11:08;;;;;;;;;;;;;;;12.81;50.86;102808.47;4146524;28;20397;-66
2021/11/06 08:13:12;;;;;;;;;;;;;;;12.81;50.80;102817.28;4146264;28;20297;-66
2021/11/06 08:15:15;;;;;;;;;;;;;;;12.81;50.63;102809.34;4146318;28;19921;-67
2021/11/06 08:17:17;;;;;;;;;;;;;;;12.80;50.84;102809.38;4146541;28;19928;-68
2021/11/06 08:19:19;;;;;;;;;;;;;;;12.80;50.45;102812.88;4145645;28;19925;-67
2021/11/06 08:21:21;;;;;;;;;;;;;;;12.80;50.80;102810.25;4146567;28;19964;-67
2021/11/06 08:23:24;;;;;;;;;;;;;;;12.80;50.67;102812.88;4146175;28;19922;-68
2021/11/06 08:25:26;;;;;;;;;;;;;;;12.80;50.86;102804.09;4146331;28;19921;-66
2021/11/06 08:27:31;;;;;;;;;;;;;;;12.81;50.83;102813.75;4146384;28;20051;-67
2021/11/06 08:29:33;;;;;;;;;;;;;;;12.81;50.86;102819.03;4146367;28;19921;-67
2021/11/06 08:31:35;;;;;;;;;;;;;;;12.81;51.14;102813.75;4146640;28;19925;-66
2021/11/06 08:33:37;;;;;;;;;;;;;;;12.81;51.09;102809.34;4146077;28;19921;-66
2021/11/06 08:35:39;;;;;;;;;;;;;;;12.81;50.82;102806.72;4146296;28;19929;-66
2021/11/06 08:37:42;;;;;;;;;;;;;;;12.81;50.72;102801.44;4146190;28;19921;-66
2021/11/06 08:39:44;;;;;;;;;;;;;;;12.82;50.64;102797.00;4135161;28;20301;-66
2021/11/06 08:41:47;;;;;;;;;;;;;;;12.82;50.80;102795.25;4146045;28;19922;-66
2021/11/06 08:43:50;;;;;;;;;;;;;;;12.82;50.69;102797.91;4149659;28;19933;-67
2021/11/06 08:45:52;;;;;;;;;;;;;;;12.83;50.70;102796.13;4146224;28;19929;-65
2021/11/06 08:47:55;;;;;;;;;;;;;;;12.82;51.14;102789.97;4146160;28;19933;-66
2021/11/06 08:49:57;;;;;;;;;;;;;;;12.83;51.06;102788.19;4145763;28;20533;-67
2021/11/06 08:51:59;;;;;;;;;;;;;;;12.82;50.59;102791.72;4146090;28;19930;-66
2021/11/06 08:54:01;;;;;;;;;;;;;;;12.83;50.65;102793.47;4145717;28;19991;-66
2021/11/06 08:56:03;;;;;;;;;;;;;;;12.84;50.74;102803.16;4145951;28;19922;-66
2021/11/06 08:58:05;;;;;;;;;;;;;;;12.82;50.90;102800.53;4145911;28;19985;-66
2021/11/06 09:00:09;;;;;;;;;;;;;;;12.84;50.57;102805.81;4145071;28;20544;-66
2021/11/06 09:02:11;;;;;;;;;;;;;;;12.83;50.67;102801.41;4145601;28;19929;-67
2021/11/06 09:04:13;;;;;;;;;;;;;;;12.83;50.91;102801.41;4145224;28;19922;-67
2021/11/06 09:06:16;;;;;;;;;;;;;;;12.83;50.78;102802.31;4145714;28;19967;-67
2021/11/06 09:08:23;;;;;;;;;;;;;;;12.83;50.58;102797.03;4145825;28;19925;-67
2021/11/06 09:10:25;;;;;;;;;;;;;;;12.84;50.78;102803.16;4145461;28;19922;-67
2021/11/06 09:12:27;;;;;;;;;;;;;;;12.84;51.10;102800.53;4145632;28;20036;-66
2021/11/06 09:14:29;;;;;;;;;;;;;;;12.84;50.95;102800.53;4145255;28;19921;-67
2021/11/06 09:16:31;;;;;;;;;;;;;;;12.84;50.70;102800.53;4145280;28;19922;-67
2021/11/06 09:18:34;;;;;;;;;;;;;;;12.84;50.70;102797.88;4145632;28;19925;-67
2021/11/06 09:20:40;;;;;;;;;;;;;;;12.85;51.07;102802.28;4145409;28;19921;-68
2021/11/06 09:22:42;;;;;;;;;;;;;;;12.85;50.99;102799.63;4145560;28;19921;-67
2021/11/06 09:24:44;;;;;;;;;;;;;;;12.85;50.99;102804.91;4145548;28;20298;-67
2021/11/06 09:26:47;;;;;;;;;;;;;;;12.84;50.97;102809.31;4144103;28;19921;-67
2021/11/06 09:28:49;;;;;;;;;;;;;;;12.86;50.80;102809.31;4145513;28;20370;-67
2021/11/06 09:30:52;;;;;;;;;;;;;;;12.86;50.66;102807.53;4147010;28;19921;-67
2021/11/06 09:32:54;;;;;;;;;;;;;;;12.86;50.86;102802.25;4148737;28;19921;-67
2021/11/06 09:34:56;;;;;;;;;;;;;;;12.88;50.79;102807.50;4148418;28;20253;-67
2021/11/06 09:36:58;;;;;;;;;;;;;;;12.88;50.74;102803.13;4148361;28;19929;-67
2021/11/06 09:39:02;;;;;;;;;;;;;;;12.89;50.71;102804.88;4148567;28;20111;-68
2021/11/06 09:41:05;;;;;;;;;;;;;;;12.89;50.91;102802.22;4148422;28;19966;-67
2021/11/06 09:43:08;;;;;;;;;;;;;;;12.89;50.80;102799.59;4156263;28;19932;-67
2021/11/06 09:45:11;;;;;;;;;;;;;;;12.89;50.73;102794.31;4161252;28;19925;-67
2021/11/06 09:47:13;;;;;;;;;;;;;;;12.90;50.67;102798.69;4148370;28;19921;-68
2021/11/06 09:49:15;;;;;;;;;;;;;;;12.90;50.95;102801.34;4146220;28;19940;-68
2021/11/06 09:51:18;;;;;;;;;;;;;;;12.90;50.64;102803.97;4150516;28;20256;-66
2021/11/06 09:53:20;;;;;;;;;;;;;;;12.92;50.48;102802.16;4150204;28;20397;-67
2021/11/06 09:55:23;;;;;;;;;;;;;;;12.91;50.97;102794.28;4145742;28;19926;-67
2021/11/06 09:57:25;;;;;;;;;;;;;;;12.93;50.91;102789.84;4146684;28;19921;-67
2021/11/06 09:59:27;;;;;;;;;;;;;;;12.93;51.22;102798.66;4152000;28;19921;-67
2021/11/06 10:01:31;;;;;;;;;;;;;;;12.94;51.54;102792.47;4148548;28;19917;-67
2021/11/06 10:03:34;;;;;;;;;;;;;;;12.97;51.51;102795.97;4150847;28;19918;-67
2021/11/06 10:05:48;;;;;;;;;;;;;;;12.99;51.52;102799.44;4146216;28;19927;-67
2021/11/06 10:07:51;;;;;;;;;;;;;;;13.01;51.15;102805.59;4145804;28;19926;-67
2021/11/06 10:10:13;;;;;;;;;;;;;;;13.02;51.02;102794.16;4148834;28;19928;-68
2021/11/06 10:12:15;;;;;;;;;;;;;;;13.04;51.22;102795.88;4147656;28;20008;-66
2021/11/06 10:14:18;;;;;;;;;;;;;;;13.05;51.11;102792.34;4148356;28;19921;-65
2021/11/06 10:16:28;;;;;;;;;;;;;;;13.06;51.16;102788.81;4148101;28;19936;-65
2021/11/06 10:18:30;;;;;;;;;;;;;;;13.07;50.74;102785.28;4137469;28;19925;-65
2021/11/06 10:20:33;;;;;;;;;;;;;;;13.09;50.85;102785.25;4146632;28;19922;-65
2021/11/06 10:22:34;;;;;;;;;;;;;;;13.09;50.67;102780.81;4146573;28;20397;-66
2021/11/06 10:24:43;;;;;;;;;;;;;;;13.10;50.78;102784.38;4147282;28;19922;-65
2021/11/06 10:26:47;;;;;;;;;;;;;;;13.10;50.77;102785.22;4147298;28;19960;-65
2021/11/06 10:29:01;;;;;;;;;;;;;;;13.11;50.72;102780.84;4137019;28;19921;-65